Bugtussle, Kentucky
Current Conditions -  °F | °C
As of 9:35 AM on Saturday 22 Nov 2014 (Local Time) from KGLW Reporting Station
Overcast Overcast  
Wind Chill: 53°   Ceiling: 8000
Heat Index: 53°   Visibility: 10mi
Dew Point: 29°   Wind: 10mph
Humidity: 40%   Direction: 190°S
Pressure: 30.33"   Gusts: NA
Location:  36.6549°N, 85.8315°W
Report Text: KGLW 221535Z AUTO 19009KT 10SM OVC080 12/M01 A3033 RMK AO2 T01181015
Loading
Personal Weather Stations






























Interactive Weather Map New forecast layout! Learn more

10-Day Weather Forecast

Advertisements
Track Severe Weather on mobile